Time;durP1;ratioP1;P1;durP2;ratioP2;P2;SDS_P1;SDS_P2;PMS_P1;PMS_P2;Temp;Humidity;BMP_temperature;BMP_pressure;BME280_temperature;BME280_humidity;BME280_pressure;Samples;Min_cycle;Max_cycle;Signal;HPM_P1;HPM_P2
2021/06/04 00:01:31;;;;;;;6.78;4.38;;;14.60;66.20;;;;;;5077838;28;20028;-79
2021/06/04 00:03:58;;;;;;;10.50;5.65;;;14.60;66.10;;;;;;5071318;28;20097;-79
2021/06/04 00:06:26;;;;;;;8.95;4.70;;;14.50;67.10;;;;;;5071232;28;20063;-80
2021/06/04 00:08:52;;;;;;;;;;;14.50;66.50;;;;;;5072853;28;20016;-79
2021/06/04 00:11:34;;;;;;;7.45;4.60;;;14.50;66.00;;;;;;5072494;28;19995;-81
2021/06/04 00:14:13;;;;;;;10.07;4.60;;;14.40;66.60;;;;;;5073118;28;20830;-79
2021/06/04 00:16:52;;;;;;;11.32;4.40;;;14.40;66.90;;;;;;5073122;28;20036;-80
2021/06/04 00:19:20;;;;;;;9.30;4.80;;;14.30;67.10;;;;;;5074581;28;20074;-79
2021/06/04 00:21:50;;;;;;;7.60;4.50;;;14.30;67.10;;;;;;5076663;28;20063;-78
2021/06/04 00:24:20;;;;;;;8.50;3.92;;;14.30;67.20;;;;;;5076580;28;20019;-79
2021/06/04 00:26:47;;;;;;;6.10;4.28;;;14.30;67.20;;;;;;5076179;28;20497;-80
2021/06/04 00:29:14;;;;;;;9.02;5.13;;;14.30;67.30;;;;;;5076547;28;20016;-79
2021/06/04 00:31:41;;;;;;;9.60;4.57;;;14.30;67.20;;;;;;5076336;28;20032;-79
2021/06/04 00:34:08;;;;;;;8.68;4.85;;;14.20;67.20;;;;;;5076171;28;20025;-80
2021/06/04 00:36:35;;;;;;;8.23;4.28;;;14.10;67.40;;;;;;5076096;28;20374;-78
2021/06/04 00:39:04;;;;;;;9.25;5.13;;;14.10;67.70;;;;;;5076160;28;20016;-82
2021/06/04 00:41:38;;;;;;;6.68;4.18;;;14.10;67.50;;;;;;5077173;28;20389;-80
2021/06/04 00:44:04;;;;;;;11.13;4.85;;;14.10;68.30;;;;;;5076219;28;20465;-80
2021/06/04 00:46:32;;;;;;;6.32;4.13;;;14.00;67.60;;;;;;5075903;28;20027;-80
2021/06/04 00:48:59;;;;;;;6.35;4.00;;;14.00;67.80;;;;;;5076127;28;20055;-81
2021/06/04 00:51:32;;;;;;;11.98;5.03;;;14.00;68.00;;;;;;5060485;28;20025;-81
2021/06/04 00:54:00;;;;;;;9.20;5.10;;;14.00;67.90;;;;;;5076074;28;20024;-81
2021/06/04 00:56:28;;;;;;;7.68;5.15;;;14.00;68.00;;;;;;5076024;28;20032;-79
2021/06/04 00:58:55;;;;;;;6.90;4.45;;;13.90;68.00;;;;;;5076133;28;20032;-79
2021/06/04 01:01:26;;;;;;;9.65;4.80;;;13.90;68.10;;;;;;5075839;28;20043;-79
2021/06/04 01:04:02;;;;;;;11.75;4.50;;;14.00;68.10;;;;;;5074442;28;20489;-79
2021/06/04 01:06:53;;;;;;;10.43;4.70;;;14.00;68.10;;;;;;5073992;28;20027;-80
2021/06/04 01:09:40;;;;;;;10.75;5.15;;;14.00;68.00;;;;;;5072331;28;20020;-79
2021/06/04 01:12:24;;;;;;;8.82;4.93;;;14.00;68.00;;;;;;5074286;28;20111;-79
2021/06/04 01:15:05;;;;;;;8.95;5.38;;;13.90;68.10;;;;;;5075833;28;20021;-79
2021/06/04 01:18:00;;;;;;;9.75;4.53;;;13.90;68.00;;;;;;5077971;28;20062;-78
2021/06/04 01:20:36;;;;;;;7.22;4.50;;;13.90;67.90;;;;;;5080666;28;20059;-79
2021/06/04 01:23:05;;;;;;;7.88;4.57;;;13.90;68.00;;;;;;5075262;28;20374;-78
2021/06/04 01:25:48;;;;;;;6.43;4.15;;;13.90;68.00;;;;;;5074906;28;20029;-78
2021/06/04 01:28:34;;;;;;;5.68;3.85;;;13.90;67.80;;;;;;5075271;28;20075;-78
2021/06/04 01:31:17;;;;;;;9.50;3.40;;;13.90;67.50;;;;;;5062753;28;20047;-79
2021/06/04 01:33:54;;;;;;;8.35;3.63;;;13.90;67.40;;;;;;5073653;28;20059;-80
2021/06/04 01:36:23;;;;;;;5.80;3.85;;;13.90;67.30;;;;;;5074922;28;20051;-80
2021/06/04 01:38:51;;;;;;;7.00;3.92;;;13.90;67.30;;;;;;5073602;28;20036;-80
2021/06/04 01:41:20;;;;;;;6.75;3.60;;;14.00;67.00;;;;;;5073956;28;20025;-80
2021/06/04 01:43:49;;;;;;;6.50;3.08;;;14.00;66.60;;;;;;5075196;28;20071;-79
2021/06/04 01:46:27;;;;;;;6.30;3.55;;;14.00;66.60;;;;;;5075253;28;20504;-79
2021/06/04 01:48:55;;;;;;;7.65;3.90;;;14.10;66.10;;;;;;5075345;28;20143;-78
2021/06/04 01:51:54;;;;;;;5.95;3.22;;;14.20;65.80;;;;;;5063301;28;20051;-79
2021/06/04 01:54:23;;;;;;;6.90;3.45;;;14.20;65.60;;;;;;5069406;28;20062;-78
2021/06/04 01:56:53;;;;;;;8.10;3.33;;;14.30;65.30;;;;;;5094977;28;20063;-78
2021/06/04 01:59:24;;;;;;;3.88;2.90;;;14.30;65.20;;;;;;5077919;28;20020;-79
2021/06/04 02:01:51;;;;;;;7.55;3.35;;;14.30;65.00;;;;;;5063965;28;20016;-79
2021/06/04 02:04:40;;;;;;;13.18;3.25;;;14.30;65.20;;;;;;5075250;28;20477;-79
2021/06/04 02:07:09;;;;;;;6.13;2.97;;;14.40;65.00;;;;;;5065434;28;20037;-78
2021/06/04 02:09:35;;;;;;;6.38;2.75;;;14.40;64.50;;;;;;5071256;28;20381;-78
2021/06/04 02:12:03;;;;;;;4.10;2.90;;;14.40;64.20;;;;;;5074422;28;20047;-80
2021/06/04 02:14:39;;;;;;;4.00;3.20;;;14.40;63.90;;;;;;5073616;28;20054;-79
2021/06/04 02:17:14;;;;;;;6.00;3.80;;;14.40;63.90;;;;;;5060751;28;20087;-80
2021/06/04 02:19:44;;;;;;;6.28;3.20;;;14.50;63.80;;;;;;5074333;28;20020;-80
2021/06/04 02:22:50;;;;;;;6.38;2.95;;;14.50;63.90;;;;;;5074713;28;20020;-79
2021/06/04 02:25:49;;;;;;;10.55;3.25;;;14.60;63.50;;;;;;5073955;28;20027;-80
2021/06/04 02:28:27;;;;;;;6.70;3.05;;;14.60;63.40;;;;;;5073868;28;20041;-78
2021/06/04 02:31:09;;;;;;;6.85;2.97;;;14.70;63.30;;;;;;5073848;28;20362;-78
2021/06/04 02:34:04;;;;;;;6.60;2.40;;;14.70;62.90;;;;;;5073676;28;20036;-79
2021/06/04 02:36:35;;;;;;;4.10;2.80;;;14.70;62.40;;;;;;5072541;28;20037;-79
2021/06/04 02:39:13;;;;;;;7.65;3.10;;;14.80;62.00;;;;;;5073834;28;20016;-80
2021/06/04 02:41:43;;;;;;;5.38;2.45;;;14.80;62.40;;;;;;5073308;28;20029;-79
2021/06/04 02:44:22;;;;;;;8.90;2.70;;;14.90;62.00;;;;;;5073796;28;20351;-79
2021/06/04 02:46:53;;;;;;;7.30;3.10;;;14.90;61.50;;;;;;5073467;28;20031;-80
2021/06/04 02:49:21;;;;;;;6.43;2.40;;;14.90;61.90;;;;;;5073604;28;20019;-81
2021/06/04 02:52:09;;;;;;;8.88;3.28;;;15.00;61.70;;;;;;5073743;28;20618;-80
2021/06/04 02:54:39;;;;;;;7.03;3.33;;;15.10;61.20;;;;;;5073518;28;20516;-82
2021/06/04 02:57:09;;;;;;;6.38;3.25;;;15.20;61.20;;;;;;5069042;28;20108;-78
2021/06/04 02:59:38;;;;;;;5.75;2.80;;;15.40;61.00;;;;;;5072701;28;20116;-79
2021/06/04 03:02:09;;;;;;;4.82;3.53;;;15.50;59.50;;;;;;5073557;28;20028;-79
2021/06/04 03:04:38;;;;;;;4.80;3.05;;;15.60;59.80;;;;;;5059716;28;20025;-78
2021/06/04 03:07:09;;;;;;;4.32;2.97;;;15.80;59.90;;;;;;5074127;28;20031;-78
2021/06/04 03:09:38;;;;;;;9.38;3.28;;;15.90;59.70;;;;;;5073013;28;20090;-79
2021/06/04 03:12:11;;;;;;;7.25;3.13;;;16.00;59.60;;;;;;5073215;28;20082;-79
2021/06/04 03:14:37;;;;;;;5.68;3.20;;;16.00;58.90;;;;;;5072959;28;20044;-80
2021/06/04 03:17:05;;;;;;;9.32;3.53;;;16.10;58.80;;;;;;5073809;28;20032;-78
2021/06/04 03:19:31;;;;;;;6.80;2.40;;;16.10;58.70;;;;;;5073077;28;20017;-80
2021/06/04 03:22:09;;;;;;;7.00;2.92;;;16.20;58.30;;;;;;5072847;28;20021;-79
2021/06/04 03:24:38;;;;;;;5.95;2.70;;;16.10;58.50;;;;;;5068815;28;20050;-81
2021/06/04 03:27:06;;;;;;;5.40;2.92;;;16.00;58.20;;;;;;5070778;28;20059;-80
2021/06/04 03:29:33;;;;;;;4.78;2.40;;;16.00;58.20;;;;;;5073063;28;20021;-80
2021/06/04 03:32:06;;;;;;;4.70;2.63;;;16.00;58.60;;;;;;5073467;28;20095;-79
2021/06/04 03:34:32;;;;;;;4.43;2.40;;;16.10;58.50;;;;;;5073104;28;20035;-80
2021/06/04 03:37:00;;;;;;;5.03;2.58;;;16.20;58.50;;;;;;5071414;28;20037;-79
2021/06/04 03:39:32;;;;;;;4.97;2.42;;;16.30;57.80;;;;;;5073223;28;20404;-80
2021/06/04 03:41:59;;;;;;;4.68;2.72;;;16.40;58.40;;;;;;5072533;28;20017;-82
2021/06/04 03:44:28;;;;;;;5.20;2.45;;;16.40;57.80;;;;;;5073022;28;20021;-81
2021/06/04 03:46:55;;;;;;;7.55;3.10;;;16.40;57.60;;;;;;5057480;28;20576;-82
2021/06/04 03:49:24;;;;;;;11.45;3.55;;;16.60;57.60;;;;;;5060889;28;20365;-80
2021/06/04 03:51:53;;;;;;;5.50;3.15;;;16.60;57.60;;;;;;5059610;28;20044;-80
2021/06/04 03:54:25;;;;;;;8.75;3.60;;;16.70;57.20;;;;;;5058774;28;20017;-79
2021/06/04 03:56:51;;;;;;;12.02;4.30;;;16.70;56.90;;;;;;5071182;28;20043;-80
2021/06/04 03:59:17;;;;;;;6.10;3.13;;;16.70;56.90;;;;;;5071421;28;20020;-79
2021/06/04 04:02:05;;;;;;;10.52;4.88;;;16.70;57.00;;;;;;5074218;28;20112;-81
2021/06/04 04:04:31;;;;;;;8.93;5.50;;;16.80;56.70;;;;;;5086311;28;20059;-79
2021/06/04 04:06:57;;;;;;;5.35;2.97;;;16.80;57.20;;;;;;5081883;28;20191;-80
2021/06/04 04:09:23;;;;;;;7.45;2.92;;;16.80;56.80;;;;;;5072366;28;20092;-80
2021/06/04 04:11:51;;;;;;;4.22;2.17;;;16.90;56.40;;;;;;5071329;28;20055;-79
2021/06/04 04:14:17;;;;;;;5.25;3.47;;;17.00;56.30;;;;;;5072966;28;20057;-80
2021/06/04 04:16:43;;;;;;;5.68;3.05;;;17.10;56.20;;;;;;5072221;28;20037;-82
2021/06/04 04:19:09;;;;;;;12.43;4.53;;;17.10;55.80;;;;;;5072542;28;20035;-80
2021/06/04 04:21:36;;;;;;;11.85;3.70;;;17.20;56.40;;;;;;5072012;28;20013;-80
2021/06/04 04:24:10;;;;;;;8.43;3.13;;;17.20;55.90;;;;;;5072379;28;20065;-79
2021/06/04 04:26:37;;;;;;;10.02;3.05;;;17.20;55.50;;;;;;5078109;28;20047;-79
2021/06/04 04:29:03;;;;;;;12.40;6.13;;;17.20;54.90;;;;;;5071891;28;20013;-79
2021/06/04 04:31:32;;;;;;;14.98;7.57;;;17.30;55.10;;;;;;5072072;28;20031;-79
2021/06/04 04:33:58;;;;;;;7.13;3.28;;;17.20;55.80;;;;;;5069432;28;20032;-79
2021/06/04 04:36:32;;;;;;;5.03;2.22;;;17.40;55.10;;;;;;5072007;28;20033;-78
2021/06/04 04:38:58;;;;;;;6.78;2.88;;;17.30;55.00;;;;;;5071707;28;20175;-78
2021/06/04 04:41:25;;;;;;;10.00;2.60;;;17.30;55.00;;;;;;5072082;28;20107;-79
2021/06/04 04:43:52;;;;;;;8.07;3.10;;;17.40;54.50;;;;;;5071855;28;20025;-80
2021/06/04 04:46:21;;;;;;;5.75;2.63;;;17.50;54.90;;;;;;5072037;28;20070;-79
2021/06/04 04:48:47;;;;;;;5.32;2.83;;;17.60;53.70;;;;;;5071754;28;20029;-80
2021/06/04 04:51:15;;;;;;;7.32;2.70;;;17.60;53.40;;;;;;5071714;28;20025;-80
2021/06/04 04:53:42;;;;;;;11.98;3.47;;;17.60;53.70;;;;;;5072308;28;20039;-79
2021/06/04 04:56:10;;;;;;;4.45;3.13;;;17.70;53.20;;;;;;5072714;28;20021;-79
2021/06/04 04:58:36;;;;;;;5.05;3.35;;;17.80;52.90;;;;;;5047903;28;20040;-78
2021/06/04 05:01:05;;;;;;;7.28;3.60;;;17.80;53.00;;;;;;5053138;28;20059;-79
2021/06/04 05:03:32;;;;;;;10.23;3.25;;;17.80;54.20;;;;;;5071670;28;20021;-80
2021/06/04 05:05:58;;;;;;;11.80;2.85;;;17.90;53.70;;;;;;5056766;28;20028;-79
2021/06/04 05:08:24;;;;;;;5.75;2.70;;;18.30;52.80;;;;;;5075408;28;20033;-79
2021/06/04 05:10:49;;;;;;;16.33;6.75;;;19.00;51.50;;;;;;5075525;28;20029;-80
2021/06/04 05:13:18;;;;;;;3.90;2.70;;;19.60;50.90;;;;;;5075542;28;20021;-81
2021/06/04 05:15:44;;;;;;;8.05;3.15;;;20.60;48.00;;;;;;5079426;28;20020;-79
2021/06/04 05:18:13;;;;;;;10.00;4.20;;;21.50;46.30;;;;;;5079139;28;20029;-80
2021/06/04 05:20:40;;;;;;;7.97;2.47;;;22.10;43.90;;;;;;5075388;28;20016;-82
2021/06/04 05:23:06;;;;;;;9.98;3.58;;;22.90;43.00;;;;;;5075358;28;20039;-83
2021/06/04 05:25:36;;;;;;;6.00;2.65;;;23.60;41.70;;;;;;5075279;28;20107;-81
2021/06/04 05:28:04;;;;;;;4.50;2.83;;;24.50;40.00;;;;;;5074173;28;20417;-82
2021/06/04 05:30:31;;;;;;;;;;;25.30;38.80;;;;;;5075596;28;20132;-82
2021/06/04 05:32:58;;;;;;;5.63;2.25;;;;;;;;;;5082133;28;19908;-80
2021/06/04 05:35:25;;;;;;;6.15;2.38;;;26.00;39.90;;;;;;5076823;28;20477;-82
2021/06/04 05:37:52;;;;;;;5.30;2.42;;;27.30;36.00;;;;;;5074782;28;20040;-83
2021/06/04 05:40:24;;;;;;;4.50;2.67;;;27.90;34.30;;;;;;5074587;28;20021;-82
2021/06/04 05:42:50;;;;;;;6.95;2.15;;;26.50;33.90;;;;;;5075111;28;20432;-82
2021/06/04 05:45:20;;;;;;;3.42;2.13;;;25.80;34.80;;;;;;5074685;28;20386;-83
2021/06/04 05:47:47;;;;;;;6.63;3.40;;;25.50;35.10;;;;;;5075098;28;20032;-81
2021/06/04 05:50:18;;;;;;;4.78;2.60;;;25.40;35.50;;;;;;5074178;28;20021;-82
2021/06/04 05:52:45;;;;;;;11.73;3.42;;;25.40;35.90;;;;;;5074761;28;20024;-81
2021/06/04 05:55:14;;;;;;;4.93;2.38;;;25.80;34.80;;;;;;5075163;28;20016;-82
2021/06/04 05:57:41;;;;;;;9.07;2.75;;;26.10;33.80;;;;;;5074418;28;20440;-83
2021/06/04 06:00:18;;;;;;;10.48;3.17;;;26.40;33.60;;;;;;5077088;28;20021;-81
2021/06/04 06:02:51;;;;;;;7.13;4.28;;;26.60;32.60;;;;;;5057137;28;20378;-82
2021/06/04 06:05:17;;;;;;;9.38;2.90;;;26.60;32.10;;;;;;5057223;28;20029;-81
2021/06/04 06:07:43;;;;;;;7.35;2.47;;;26.50;31.50;;;;;;5056934;28;20023;-82
2021/06/04 06:10:10;;;;;;;5.55;3.15;;;26.90;31.60;;;;;;5076810;28;20024;-82
2021/06/04 06:12:36;;;;;;;8.40;4.00;;;27.70;31.10;;;;;;5077948;28;20028;-83
2021/06/04 06:15:05;;;;;;;5.40;2.40;;;28.80;31.50;;;;;;5087867;28;20033;-82
2021/06/04 06:17:31;;;;;;;8.88;2.40;;;;;;;;;;5079084;28;20115;-80
2021/06/04 06:19:58;;;;;;;6.15;2.97;;;;;;;;;;5075389;28;20050;-83
2021/06/04 06:22:24;;;;;;;8.90;4.80;;;;;;;;;;5075984;28;20031;-81
2021/06/04 06:24:51;;;;;;;9.07;2.90;;;;;;;;;;5078496;28;20040;-82
2021/06/04 06:27:17;;;;;;;9.30;4.18;;;;;;;;;;5069675;28;20071;-79
2021/06/04 06:29:43;;;;;;;15.15;7.32;;;;;;;;;;5070681;28;20095;-76
2021/06/04 06:32:11;;;;;;;11.63;5.50;;;;;;;;;;5074297;28;20095;-83
2021/06/04 06:34:38;;;;;;;5.57;2.65;;;;;;;;;;5074127;28;20555;-83
2021/06/04 06:37:05;;;;;;;6.00;2.67;;;;;;;;;;5073473;28;20025;-86
2021/06/04 06:39:33;;;;;;;9.40;5.18;;;;;;;;;;5066477;28;20024;-84
2021/06/04 06:42:00;;;;;;;6.95;3.00;;;;;;;;;;5055785;28;20478;-84
2021/06/04 06:44:26;;;;;;;;;;;;;;;;;;5074476;28;20931;-84
2021/06/04 06:46:53;;;;;;;16.75;3.40;;;;;;;;;;5074096;28;19908;-83
2021/06/04 06:49:20;;;;;;;8.13;3.15;;;;;;;;;;5073946;28;20031;-86
2021/06/04 06:51:47;;;;;;;7.45;4.07;;;;;;;;;;5074044;28;20523;-83
2021/06/04 06:54:17;;;;;;;4.45;2.40;;;;;;;;;;5074049;28;20051;-86
2021/06/04 06:56:47;;;;;;;5.93;2.60;;;;;;;;;;5073959;28;20047;-85
2021/06/04 06:59:13;;;;;;;7.75;2.90;;;;;;;;;;5074872;28;20024;-83
2021/06/04 07:01:39;;;;;;;4.07;2.70;;;;;;;;;;5074356;28;20024;-85
2021/06/04 07:04:06;;;;;;;9.20;2.63;;;;;;;;;;5072456;28;20553;-86
2021/06/04 07:06:35;;;;;;;6.88;2.63;;;30.40;29.10;;;;;;5073745;28;20028;-86
2021/06/04 07:09:04;;;;;;;10.80;3.25;;;34.30;26.20;;;;;;5063077;28;20397;-84
2021/06/04 07:11:36;;;;;;;7.47;3.17;;;33.40;26.20;;;;;;5065487;28;20025;-83
2021/06/04 07:14:03;;;;;;;7.53;2.63;;;33.10;26.80;;;;;;5072806;28;20021;-85
2021/06/04 07:16:29;;;;;;;9.30;3.70;;;34.30;26.40;;;;;;5074867;28;20032;-83
2021/06/04 07:18:55;;;;;;;7.25;2.70;;;34.70;25.40;;;;;;5074504;28;20029;-85
2021/06/04 07:21:24;;;;;;;12.63;5.93;;;33.20;25.90;;;;;;5078012;28;20473;-83
2021/06/04 07:23:51;;;;;;;6.05;3.10;;;32.00;27.00;;;;;;5075712;28;20469;-83
2021/06/04 07:26:18;;;;;;;9.20;4.00;;;31.80;26.90;;;;;;5072229;28;20063;-83
2021/06/04 07:28:44;;;;;;;7.63;2.80;;;31.20;27.00;;;;;;5072822;28;20031;-83
2021/06/04 07:31:14;;;;;;;7.50;2.58;;;30.70;27.30;;;;;;5073580;28;20013;-85
2021/06/04 07:33:46;;;;;;;6.72;3.42;;;30.60;27.40;;;;;;5071783;28;20104;-84
2021/06/04 07:36:20;;;;;;;10.38;2.80;;;31.10;27.70;;;;;;5076059;28;20013;-84
2021/06/04 07:38:46;;;;;;;5.68;2.45;;;31.60;27.50;;;;;;5081765;28;20463;-85
2021/06/04 07:41:13;;;;;;;3.63;2.25;;;32.30;27.10;;;;;;5080639;28;20142;-83
2021/06/04 07:43:40;;;;;;;5.45;2.63;;;32.80;27.10;;;;;;5078062;28;20032;-83
2021/06/04 07:46:31;;;;;;;5.18;2.58;;;32.90;27.00;;;;;;5076202;28;20455;-85
2021/06/04 07:48:59;;;;;;;8.20;1.75;;;32.20;26.70;;;;;;5069660;28;20036;-85
2021/06/04 07:51:30;;;;;;;14.18;2.53;;;31.90;27.10;;;;;;5075164;28;20099;-87
2021/06/04 07:53:56;;;;;;;8.23;2.33;;;32.70;27.20;;;;;;5075062;28;20025;-83
2021/06/04 07:56:23;;;;;;;8.40;3.20;;;32.50;27.00;;;;;;5074025;28;20020;-85
2021/06/04 07:58:49;;;;;;;5.82;1.60;;;32.90;26.70;;;;;;5072836;28;20035;-86
2021/06/04 08:01:16;;;;;;;9.50;2.30;;;33.40;26.30;;;;;;5073910;28;20096;-85
2021/06/04 08:03:44;;;;;;;8.45;2.70;;;33.50;26.60;;;;;;5075377;28;20448;-84
2021/06/04 08:06:14;;;;;;;4.45;2.10;;;35.00;26.00;;;;;;5061977;28;20012;-86
2021/06/04 08:08:41;;;;;;;6.43;1.70;;;35.00;25.80;;;;;;5075097;28;20020;-85
2021/06/04 08:11:09;;;;;;;5.90;2.35;;;34.60;26.00;;;;;;5075285;28;20067;-85
2021/06/04 08:13:36;;;;;;;5.55;2.20;;;34.50;25.90;;;;;;5073074;28;20024;-85
2021/06/04 08:16:07;;;;;;;;;;;34.20;26.20;;;;;;5073525;28;20036;-84
2021/06/04 08:18:35;;;;;;;3.75;2.10;;;34.50;26.60;;;;;;5073152;28;19982;-85
2021/06/04 08:21:05;;;;;;;7.35;2.20;;;34.90;25.70;;;;;;5074442;28;20016;-83
2021/06/04 08:23:39;;;;;;;5.32;2.03;;;34.60;25.80;;;;;;5076931;28;20028;-84
2021/06/04 08:26:07;;;;;;;6.28;1.88;;;33.40;26.40;;;;;;5089920;28;20037;-85
2021/06/04 08:28:33;;;;;;;9.63;2.40;;;33.20;26.50;;;;;;5092953;28;20017;-83
2021/06/04 08:30:59;;;;;;;5.50;2.03;;;33.00;26.70;;;;;;5082742;28;20042;-82
2021/06/04 08:33:31;;;;;;;6.13;1.52;;;33.30;26.70;;;;;;5074737;28;20651;-84
2021/06/04 08:35:59;;;;;;;7.00;1.75;;;34.00;26.30;;;;;;5073193;28;20032;-84
2021/06/04 08:38:26;;;;;;;5.60;1.70;;;35.00;26.00;;;;;;5072521;28;20045;-85
2021/06/04 08:40:52;;;;;;;6.47;1.60;;;;;;;;;;5077617;28;20017;-85
2021/06/04 08:43:18;;;;;;;;;;;;;;;;;;5088768;28;20024;-85
2021/06/04 08:45:52;;;;;;;3.33;1.85;;;;;;;;;;5077438;28;19991;-84
2021/06/04 08:48:19;;;;;;;9.13;1.90;;;;;;;;;;5080096;28;20017;-87
2021/06/04 08:50:51;;;;;;;5.60;1.40;;;;;;;;;;5062240;28;20074;-85
2021/06/04 08:53:26;;;;;;;10.05;1.60;;;;;;;;;;5077012;28;20030;-83
2021/06/04 08:55:55;;;;;;;7.60;1.77;;;;;;;;;;5078759;28;20505;-85
2021/06/04 08:58:21;;;;;;;8.23;1.85;;;;;;;;;;5082519;28;20033;-83
2021/06/04 09:00:55;;;;;;;2.55;1.20;;;;;;;;;;5079460;28;20044;-83
2021/06/04 09:03:23;;;;;;;2.42;1.38;;;;;;;;;;5078053;28;20312;-85
2021/06/04 09:05:51;;;;;;;9.48;3.42;;;;;;;;;;5076579;28;20036;-86
2021/06/04 09:08:26;;;;;;;8.93;2.55;;;;;;;;;;5077170;28;20382;-86
2021/06/04 09:10:55;;;;;;;5.90;2.05;;;;;;;;;;5077551;28;20198;-85
2021/06/04 09:13:26;;;;;;;6.63;1.40;;;35.60;25.50;;;;;;5079915;28;20021;-85
2021/06/04 09:15:59;;;;;;;6.40;2.47;;;32.90;25.50;;;;;;5077120;28;20098;-85
2021/06/04 09:18:52;;;;;;;9.20;2.50;;;32.60;25.80;;;;;;5076747;28;20032;-85
2021/06/04 09:21:24;;;;;;;7.40;2.10;;;32.80;26.00;;;;;;5076227;28;20457;-84
2021/06/04 09:23:51;;;;;;;4.82;1.65;;;32.20;25.30;;;;;;5075825;28;20466;-84
2021/06/04 09:26:18;;;;;;;7.05;3.53;;;32.00;25.70;;;;;;5077932;28;20094;-84
2021/06/04 09:28:47;;;;;;;8.00;3.17;;;32.60;25.90;;;;;;5076008;28;20035;-84
2021/06/04 09:31:32;;;;;;;5.55;2.60;;;32.30;26.40;;;;;;5076145;28;20787;-85
2021/06/04 09:34:09;;;;;;;8.25;3.55;;;33.00;26.10;;;;;;5075855;28;20025;-86
2021/06/04 09:36:48;;;;;;;7.85;2.17;;;32.80;25.40;;;;;;5074997;28;20033;-85
2021/06/04 09:39:19;;;;;;;4.82;1.88;;;32.50;26.00;;;;;;5065029;28;20028;-87
2021/06/04 09:41:47;;;;;;;7.38;3.50;;;33.20;26.20;;;;;;5076199;28;20393;-85
2021/06/04 09:44:21;;;;;;;4.57;2.50;;;34.10;25.50;;;;;;5076219;28;20017;-86
2021/06/04 09:46:55;;;;;;;10.23;4.18;;;33.30;25.60;;;;;;5077407;28;20028;-84
2021/06/04 09:49:43;;;;;;;7.93;3.97;;;32.80;25.90;;;;;;5055706;28;20056;-84
2021/06/04 09:52:27;;;;;;;7.97;2.85;;;;;;;;;;5071680;28;20066;-86
2021/06/04 09:55:11;;;;;;;6.22;1.63;;;32.70;26.00;;;;;;5065184;28;20099;-86
2021/06/04 09:57:54;;;;;;;6.07;2.38;;;32.00;26.20;;;;;;5074959;28;20032;-84
2021/06/04 10:00:30;;;;;;;4.53;1.65;;;32.50;26.20;;;;;;5075541;28;20118;-86
2021/06/04 10:03:14;;;;;;;4.43;1.25;;;32.30;26.00;;;;;;5075697;28;20405;-85
2021/06/04 10:05:40;;;;;;;5.43;2.00;;;32.30;25.70;;;;;;5075633;28;20023;-85
2021/06/04 10:08:23;;;;;;;2.53;1.70;;;31.80;25.70;;;;;;5075550;28;20473;-86
2021/06/04 10:11:13;;;;;;;8.70;1.95;;;31.60;26.30;;;;;;5076216;28;20367;-85
2021/06/04 10:14:02;;;;;;;6.82;1.67;;;32.10;26.20;;;;;;5032649;28;20033;-86
2021/06/04 10:16:47;;;;;;;6.28;1.70;;;31.70;26.30;;;;;;5071723;28;20035;-85
2021/06/04 10:19:42;;;;;;;8.40;1.97;;;32.40;26.20;;;;;;5066622;28;20120;-85
2021/06/04 10:22:28;;;;;;;6.78;1.73;;;32.40;25.90;;;;;;5056407;28;20269;-85
2021/06/04 10:25:18;;;;;;;7.80;2.35;;;32.20;25.80;;;;;;5057702;28;20031;-85
2021/06/04 10:27:54;;;;;;;14.95;3.45;;;31.80;25.90;;;;;;5075870;28;20122;-84
2021/06/04 10:30:25;;;;;;;11.82;2.20;;;29.70;26.60;;;;;;5067335;28;20025;-85
2021/06/04 10:32:54;;;;;;;3.83;1.60;;;27.60;28.20;;;;;;5086576;28;20036;-87
2021/06/04 10:35:22;;;;;;;2.97;1.60;;;26.20;29.80;;;;;;5078398;28;20019;-87
2021/06/04 10:38:03;;;;;;;3.97;1.17;;;25.30;31.20;;;;;;5084149;28;20033;-84
2021/06/04 10:40:37;;;;;;;4.35;1.40;;;24.70;31.10;;;;;;5093895;28;20021;-84
2021/06/04 10:43:33;;;;;;;1.73;1.20;;;24.30;31.60;;;;;;5093225;28;20064;-85
2021/06/04 10:46:17;;;;;;;6.35;1.60;;;23.70;32.50;;;;;;5076643;28;20521;-84
2021/06/04 10:48:55;;;;;;;6.85;1.27;;;23.30;33.50;;;;;;5076975;28;20031;-85
2021/06/04 10:51:40;;;;;;;8.20;1.85;;;;;;;;;;5066098;28;20439;-86
2021/06/04 10:54:17;;;;;;;11.25;1.48;;;23.10;33.90;;;;;;5075386;28;20038;-85
2021/06/04 10:56:47;;;;;;;;;;;22.90;34.10;;;;;;5076708;28;20394;-85
2021/06/04 10:59:18;;;;;;;4.68;1.42;;;22.80;33.50;;;;;;5059648;28;19905;-85
2021/06/04 11:01:54;;;;;;;11.02;1.45;;;22.60;34.40;;;;;;5069922;28;20107;-86
2021/06/04 11:04:35;;;;;;;4.32;1.63;;;22.70;34.00;;;;;;5057538;28;20020;-87
2021/06/04 11:07:04;;;;;;;5.13;1.70;;;22.60;34.30;;;;;;5068895;28;20020;-86
2021/06/04 11:09:44;;;;;;;3.97;1.60;;;22.50;34.70;;;;;;5076263;28;20048;-86
2021/06/04 11:12:34;;;;;;;5.50;1.55;;;22.40;34.90;;;;;;5076706;28;20107;-85
2021/06/04 11:15:22;;;;;;;4.55;1.40;;;22.40;34.90;;;;;;5065111;28;20013;-85
2021/06/04 11:17:54;;;;;;;8.32;1.83;;;22.40;35.10;;;;;;5077521;28;20119;-85
2021/06/04 11:20:22;;;;;;;12.95;2.10;;;22.40;34.90;;;;;;5081784;28;20087;-85
2021/06/04 11:23:16;;;;;;;6.82;1.52;;;22.40;34.80;;;;;;5063808;28;20083;-85
2021/06/04 11:25:42;;;;;;;3.53;1.50;;;22.50;33.50;;;;;;5063047;28;20024;-85
2021/06/04 11:28:17;;;;;;;4.25;1.70;;;22.40;33.20;;;;;;5074664;28;20677;-85
2021/06/04 11:30:43;;;;;;;3.90;1.58;;;22.40;33.80;;;;;;5075397;28;20104;-86
2021/06/04 11:33:20;;;;;;;6.40;2.00;;;22.50;33.30;;;;;;5073484;28;20096;-87
2021/06/04 11:35:53;;;;;;;4.82;1.60;;;22.50;33.80;;;;;;5066783;28;20039;-86
2021/06/04 11:38:47;;;;;;;4.20;1.42;;;22.50;34.00;;;;;;5059858;28;20082;-85
2021/06/04 11:41:32;;;;;;;4.93;1.60;;;22.50;34.20;;;;;;5066786;28;20024;-86
2021/06/04 11:44:27;;;;;;;4.18;1.50;;;22.40;34.60;;;;;;5071907;28;20025;-85
2021/06/04 11:47:11;;;;;;;3.28;1.65;;;22.50;34.60;;;;;;5060137;28;20436;-84
2021/06/04 11:49:55;;;;;;;3.50;1.75;;;22.40;34.60;;;;;;5073891;28;20035;-85
2021/06/04 11:52:30;;;;;;;3.58;1.40;;;22.40;34.60;;;;;;5059591;28;20047;-86
2021/06/04 11:55:22;;;;;;;4.13;1.33;;;22.40;34.10;;;;;;5074920;28;20021;-84
2021/06/04 11:57:57;;;;;;;7.68;1.70;;;22.50;34.10;;;;;;5077146;28;20028;-84
2021/06/04 12:00:26;;;;;;;10.32;2.03;;;22.30;34.00;;;;;;5090495;28;20382;-85
2021/06/04 12:02:53;;;;;;;6.90;1.70;;;22.30;34.30;;;;;;5079339;28;20028;-86
2021/06/04 12:05:19;;;;;;;5.95;1.63;;;22.40;34.60;;;;;;5088972;28;20047;-85
2021/06/04 12:08:06;;;;;;;5.07;1.35;;;22.40;34.70;;;;;;5075670;28;20020;-85
2021/06/04 12:10:53;;;;;;;10.57;2.45;;;22.50;34.00;;;;;;5073421;28;20020;-85
2021/06/04 12:13:48;;;;;;;9.50;1.80;;;22.60;34.00;;;;;;5062923;28;20184;-85
2021/06/04 12:16:23;;;;;;;8.48;1.92;;;22.60;33.80;;;;;;5079449;28;20021;-85
2021/06/04 12:18:58;;;;;;;7.30;2.35;;;22.60;33.70;;;;;;5077766;28;20147;-84
2021/06/04 12:21:42;;;;;;;7.38;1.30;;;22.70;33.70;;;;;;5076780;28;20025;-85
2021/06/04 12:24:19;;;;;;;7.50;2.10;;;22.70;33.70;;;;;;5073719;28;20070;-85
2021/06/04 12:26:52;;;;;;;6.65;1.60;;;22.60;33.90;;;;;;5076976;28;20045;-86
2021/06/04 12:29:21;;;;;;;5.78;1.45;;;22.60;33.70;;;;;;5068520;28;20351;-83
2021/06/04 12:32:04;;;;;;;11.90;2.42;;;22.60;33.80;;;;;;5066320;28;20147;-85
2021/06/04 12:34:37;;;;;;;4.72;1.45;;;22.70;33.90;;;;;;5084368;28;20025;-85
2021/06/04 12:37:30;;;;;;;11.10;1.90;;;22.70;34.00;;;;;;5074578;28;20021;-85
2021/06/04 12:40:08;;;;;;;11.05;2.15;;;22.70;33.90;;;;;;5074088;28;20029;-85
2021/06/04 12:42:47;;;;;;;4.50;1.80;;;22.80;33.80;;;;;;5060604;28;20043;-85
2021/06/04 12:45:16;;;;;;;6.40;1.67;;;22.80;33.40;;;;;;5074622;28;20025;-85
2021/06/04 12:48:00;;;;;;;10.93;2.13;;;22.80;33.70;;;;;;5075561;28;20029;-87
2021/06/04 12:50:32;;;;;;;5.05;1.50;;;22.80;33.70;;;;;;5072463;28;20029;-85
2021/06/04 12:53:25;;;;;;;4.15;1.67;;;22.80;33.30;;;;;;5093920;28;20032;-88
2021/06/04 12:55:57;;;;;;;4.53;1.85;;;22.80;33.10;;;;;;5083754;28;20012;-84
2021/06/04 12:58:37;;;;;;;8.25;1.73;;;22.80;32.90;;;;;;5073966;28;20033;-84
2021/06/04 13:01:14;;;;;;;10.25;3.05;;;22.90;32.90;;;;;;5076174;28;20042;-83
2021/06/04 13:04:25;;;;;;;9.40;2.03;;;22.80;33.70;;;;;;5074396;28;20051;-83
2021/06/04 13:06:53;;;;;;;7.07;1.83;;;22.90;33.40;;;;;;5073398;28;20112;-84
2021/06/04 13:09:36;;;;;;;5.38;1.65;;;22.90;34.00;;;;;;5073287;28;20024;-86
2021/06/04 13:12:24;;;;;;;5.60;1.77;;;22.90;33.70;;;;;;5074359;28;20027;-86
2021/06/04 13:14:52;;;;;;;12.45;2.22;;;22.90;33.70;;;;;;5072458;28;20063;-88
2021/06/04 13:17:27;;;;;;;6.10;1.83;;;22.90;33.80;;;;;;5074696;28;20037;-84
2021/06/04 13:20:17;;;;;;;4.97;1.45;;;22.80;34.00;;;;;;5077362;28;20032;-87
2021/06/04 13:22:45;;;;;;;10.52;1.90;;;22.80;34.00;;;;;;5077967;28;20446;-84
2021/06/04 13:25:27;;;;;;;9.40;1.65;;;22.70;34.20;;;;;;5074351;28;20065;-83
2021/06/04 13:28:22;;;;;;;11.85;2.08;;;22.70;34.30;;;;;;5069989;28;20396;-86